createdAt,value
2019-05-23T00:02:04.100Z,11.30
2019-05-23T00:05:11.286Z,11.30
2019-05-23T00:08:00.757Z,11.30
2019-05-23T00:11:03.273Z,11.20
2019-05-23T00:13:48.875Z,11.20
2019-05-23T00:16:23.197Z,11.20
2019-05-23T00:18:53.646Z,11.10
2019-05-23T00:21:23.940Z,11.10
2019-05-23T00:23:54.522Z,11.10
2019-05-23T00:26:26.067Z,11.10
2019-05-23T00:29:09.510Z,11.00
2019-05-23T00:31:37.110Z,11.00
2019-05-23T00:34:09.775Z,11.00
2019-05-23T00:36:39.794Z,11.00
2019-05-23T00:39:11.560Z,10.90
2019-05-23T00:41:41.942Z,10.90
2019-05-23T00:44:13.042Z,10.90
2019-05-23T00:46:43.732Z,10.90
2019-05-23T00:49:15.900Z,10.90
2019-05-23T00:51:47.070Z,10.80
2019-05-23T00:54:16.779Z,10.80
2019-05-23T00:56:47.401Z,10.80
2019-05-23T00:59:26.728Z,10.70
2019-05-23T01:01:49.251Z,10.70
2019-05-23T01:04:20.791Z,10.70
2019-05-23T01:06:50.784Z,10.60
2019-05-23T01:09:20.541Z,10.60
2019-05-23T01:11:50.622Z,10.60
2019-05-23T01:14:21.406Z,10.60
2019-05-23T01:16:51.390Z,10.50
2019-05-23T01:19:21.259Z,10.50
2019-05-23T01:22:00.846Z,10.40
2019-05-23T01:24:35.396Z,10.40
2019-05-23T01:27:07.093Z,10.40
2019-05-23T01:29:43.146Z,10.40
2019-05-23T01:32:31.237Z,10.40
2019-05-23T01:35:02.811Z,10.40
2019-05-23T01:37:32.407Z,10.40
2019-05-23T01:40:02.409Z,10.40
2019-05-23T01:42:33.720Z,10.40
2019-05-23T01:45:03.646Z,10.30
2019-05-23T01:47:34.348Z,10.30
2019-05-23T01:50:05.404Z,10.30
2019-05-23T01:52:36.001Z,10.30
2019-05-23T01:55:07.918Z,10.20
2019-05-23T01:57:39.002Z,10.20
2019-05-23T02:00:11.843Z,10.20
2019-05-23T02:02:42.950Z,10.20
2019-05-23T02:05:14.083Z,10.30
2019-05-23T02:07:43.846Z,10.20
2019-05-23T02:10:14.175Z,10.20
2019-05-23T02:12:44.731Z,10.20
2019-05-23T02:15:15.471Z,10.20
2019-05-23T02:17:45.299Z,10.20
2019-05-23T02:20:17.978Z,10.20
2019-05-23T02:22:48.613Z,10.10
2019-05-23T02:25:20.871Z,10.00
2019-05-23T02:27:53.305Z,10.00
2019-05-23T02:30:33.815Z,10.00
2019-05-23T02:32:56.430Z,9.90
2019-05-23T02:35:26.054Z,9.90
2019-05-23T02:38:17.927Z,9.90
2019-05-23T02:40:54.894Z,9.90
2019-05-23T02:43:25.491Z,9.80
2019-05-23T02:45:58.816Z,9.80
2019-05-23T02:48:33.755Z,9.70
2019-05-23T02:51:08.202Z,9.70
2019-05-23T02:53:38.972Z,9.70
2019-05-23T02:56:13.275Z,9.70
2019-05-23T02:59:01.491Z,9.70
2019-05-23T03:01:55.200Z,9.70
2019-05-23T03:04:28.171Z,9.70
2019-05-23T03:07:01.296Z,9.70
2019-05-23T03:09:34.151Z,9.70
2019-05-23T03:12:06.887Z,9.60
2019-05-23T03:14:38.999Z,9.60
2019-05-23T03:17:13.929Z,9.60
2019-05-23T03:19:54.127Z,9.60
2019-05-23T03:22:36.405Z,9.60
2019-05-23T03:25:16.907Z,9.50
2019-05-23T03:27:48.435Z,9.50
2019-05-23T03:30:24.919Z,9.50
2019-05-23T03:33:00.109Z,9.40
2019-05-23T03:35:36.109Z,9.40
2019-05-23T03:38:06.269Z,9.50
2019-05-23T03:40:36.244Z,9.50
2019-05-23T03:43:08.302Z,9.50
2019-05-23T03:45:40.401Z,9.60
2019-05-23T03:48:11.544Z,9.60
2019-05-23T03:50:43.361Z,9.60
2019-05-23T03:53:16.981Z,9.70
2019-05-23T03:55:50.196Z,9.70
2019-05-23T03:58:21.187Z,9.70
2019-05-23T04:00:54.839Z,9.70
2019-05-23T04:03:26.647Z,9.70
2019-05-23T04:05:56.761Z,9.70
2019-05-23T04:08:26.814Z,9.70
2019-05-23T04:10:58.210Z,9.80
2019-05-23T04:13:28.278Z,9.80
2019-05-23T04:15:58.737Z,9.90
2019-05-23T04:18:28.494Z,9.90
2019-05-23T04:20:58.247Z,10.00
2019-05-23T04:23:28.024Z,10.00
2019-05-23T04:25:58.004Z,10.10
2019-05-23T04:28:28.979Z,10.10
2019-05-23T04:30:59.334Z,10.10
2019-05-23T04:33:29.035Z,10.20
2019-05-23T04:35:59.570Z,10.30
2019-05-23T04:38:30.034Z,10.40
2019-05-23T04:40:59.639Z,10.70
2019-05-23T04:43:29.431Z,11.30
2019-05-23T04:46:00.355Z,12.10
2019-05-23T04:48:30.058Z,12.70
2019-05-23T04:51:01.209Z,13.40
2019-05-23T04:53:31.496Z,13.90
2019-05-23T04:56:01.811Z,14.50
2019-05-23T04:58:31.850Z,15.20
2019-05-23T05:01:01.720Z,15.60
2019-05-23T05:03:31.941Z,16.20
2019-05-23T05:06:01.981Z,16.70
2019-05-23T05:08:31.646Z,17.20
2019-05-23T05:11:01.322Z,18.00
2019-05-23T05:13:34.339Z,18.60
2019-05-23T05:16:04.682Z,19.50
2019-05-23T05:18:34.870Z,20.10
2019-05-23T05:21:04.567Z,20.80
2019-05-23T05:23:34.257Z,21.30
2019-05-23T05:26:04.222Z,21.70
2019-05-23T05:28:34.137Z,21.50
2019-05-23T05:31:04.076Z,20.90
2019-05-23T05:33:33.798Z,20.50
2019-05-23T05:36:04.621Z,20.90
2019-05-23T05:38:35.112Z,21.00
2019-05-23T05:41:05.283Z,21.30
2019-05-23T05:43:36.267Z,21.10
2019-05-23T05:46:06.195Z,21.00
2019-05-23T05:48:36.733Z,21.10
2019-05-23T05:51:06.625Z,21.10
2019-05-23T05:53:36.472Z,21.10
2019-05-23T05:56:06.158Z,21.60
2019-05-23T05:58:35.852Z,22.30
2019-05-23T06:01:08.834Z,22.90
2019-05-23T06:03:39.305Z,23.40
2019-05-23T06:06:15.334Z,23.40
2019-05-23T06:08:45.978Z,23.50
2019-05-23T06:11:16.853Z,23.10
2019-05-23T06:13:46.740Z,22.20
2019-05-23T06:16:16.508Z,22.10
2019-05-23T06:18:46.593Z,22.10
2019-05-23T06:21:18.945Z,22.20
2019-05-23T06:23:48.647Z,21.70
2019-05-23T06:26:19.394Z,21.10
2019-05-23T06:28:50.643Z,20.70
2019-05-23T06:31:22.247Z,20.60
2019-05-23T06:33:52.619Z,20.70
2019-05-23T06:36:23.601Z,20.70
2019-05-23T06:38:55.448Z,21.00
2019-05-23T06:41:26.835Z,21.50
2019-05-23T06:43:56.586Z,22.20
2019-05-23T06:46:26.245Z,22.10
2019-05-23T06:48:56.093Z,22.10
2019-05-23T06:51:26.359Z,22.20
2019-05-23T06:53:56.638Z,22.90
2019-05-23T06:56:27.295Z,23.50
2019-05-23T06:58:57.002Z,23.60
2019-05-23T07:01:26.790Z,24.30
2019-05-23T07:03:56.971Z,24.70
2019-05-23T07:06:27.457Z,25.10
2019-05-23T07:08:57.522Z,25.30
2019-05-23T07:11:27.258Z,26.00
2019-05-23T07:13:57.933Z,26.50
2019-05-23T07:16:27.554Z,26.40
2019-05-23T07:18:57.247Z,26.60
2019-05-23T07:21:28.438Z,27.00
2019-05-23T07:23:58.134Z,27.20
2019-05-23T07:26:28.588Z,27.20
2019-05-23T07:28:58.546Z,27.20
2019-05-23T07:31:28.227Z,27.20
2019-05-23T07:34:02.329Z,27.20
2019-05-23T07:36:30.475Z,27.20
2019-05-23T07:39:00.681Z,27.20
2019-05-23T07:41:32.301Z,26.90
2019-05-23T07:44:02.328Z,26.90
2019-05-23T07:46:32.086Z,27.00
2019-05-23T07:49:02.064Z,27.50
2019-05-23T07:51:32.331Z,27.80
2019-05-23T07:54:09.556Z,28.10
2019-05-23T07:56:40.285Z,27.60
2019-05-23T07:59:11.164Z,26.80
2019-05-23T08:01:44.524Z,26.40
2019-05-23T08:04:21.222Z,26.40
2019-05-23T08:06:48.908Z,26.30
2019-05-23T08:09:18.122Z,26.40
2019-05-23T08:11:48.808Z,26.70
2019-05-23T08:14:18.467Z,26.80
2019-05-23T08:16:49.049Z,27.10
2019-05-23T08:19:20.733Z,27.20
2019-05-23T08:21:50.437Z,27.00
2019-05-23T08:24:20.708Z,26.70
2019-05-23T08:26:50.932Z,27.00
2019-05-23T08:29:25.883Z,27.10
2019-05-23T08:31:54.279Z,27.00
2019-05-23T08:34:40.132Z,26.70
2019-05-23T08:36:56.234Z,26.80
2019-05-23T08:39:26.837Z,26.60
2019-05-23T08:41:57.088Z,26.40
2019-05-23T08:44:27.206Z,26.00
2019-05-23T08:46:57.294Z,25.90
2019-05-23T08:49:28.042Z,25.80
2019-05-23T08:51:58.667Z,25.90
2019-05-23T08:54:28.694Z,25.80
2019-05-23T08:56:58.448Z,25.80
2019-05-23T08:59:28.394Z,25.90
2019-05-23T09:01:58.037Z,25.90
2019-05-23T09:04:29.473Z,25.80
2019-05-23T09:06:59.466Z,26.00
2019-05-23T09:09:30.509Z,25.90
2019-05-23T09:12:00.370Z,25.60
2019-05-23T09:14:30.512Z,25.50
2019-05-23T09:17:01.949Z,25.40
2019-05-23T09:19:31.622Z,25.30
2019-05-23T09:22:01.351Z,25.30
2019-05-23T09:24:31.127Z,25.30
2019-05-23T09:27:01.426Z,25.40
2019-05-23T09:29:32.139Z,25.10
2019-05-23T09:32:01.977Z,24.90
2019-05-23T09:34:32.148Z,24.90
2019-05-23T09:37:01.930Z,25.10
2019-05-23T09:39:32.394Z,25.10
2019-05-23T09:42:02.078Z,24.90
2019-05-23T09:44:32.089Z,25.00
2019-05-23T09:47:03.001Z,24.90
2019-05-23T09:49:32.598Z,24.70
2019-05-23T09:52:02.703Z,24.70
2019-05-23T09:54:32.739Z,24.50
2019-05-23T09:57:02.384Z,24.60
2019-05-23T09:59:32.198Z,24.90
2019-05-23T10:02:02.573Z,25.00
2019-05-23T10:04:32.583Z,24.90
2019-05-23T10:07:02.565Z,24.60
2019-05-23T10:09:33.305Z,24.60
2019-05-23T10:12:03.049Z,24.60
2019-05-23T10:14:34.851Z,24.50
2019-05-23T10:17:04.910Z,24.40
2019-05-23T10:19:34.834Z,24.20
2019-05-23T10:22:05.887Z,24.00
2019-05-23T10:24:35.513Z,24.10
2019-05-23T10:27:07.627Z,24.20
2019-05-23T10:29:37.308Z,24.20
2019-05-23T10:32:08.669Z,24.00
2019-05-23T10:34:38.298Z,23.90
2019-05-23T10:37:10.272Z,23.70
2019-05-23T10:39:44.155Z,23.60
2019-05-23T10:42:14.004Z,23.70
2019-05-23T10:44:44.973Z,23.80
2019-05-23T10:47:15.231Z,23.80
2019-05-23T10:49:45.298Z,23.70
2019-05-23T10:52:15.362Z,23.80
2019-05-23T10:54:45.274Z,23.80
2019-05-23T10:57:15.146Z,23.80
2019-05-23T10:59:44.742Z,23.50
2019-05-23T11:02:15.569Z,23.40
2019-05-23T11:04:46.195Z,23.20
2019-05-23T11:07:16.775Z,23.00
2019-05-23T11:09:46.412Z,22.80
2019-05-23T11:12:16.155Z,22.80
2019-05-23T11:14:46.319Z,23.10
2019-05-23T11:17:16.196Z,23.30
2019-05-23T11:19:45.869Z,23.10
2019-05-23T11:22:15.591Z,23.10
2019-05-23T11:24:45.276Z,23.10
2019-05-23T11:27:15.346Z,23.00
2019-05-23T11:29:45.220Z,23.00
2019-05-23T11:32:19.781Z,23.10
2019-05-23T11:34:47.542Z,23.20
2019-05-23T11:37:17.515Z,23.20
2019-05-23T11:39:49.956Z,23.00
2019-05-23T11:42:18.679Z,22.70
2019-05-23T11:44:48.284Z,22.70
2019-05-23T11:47:18.271Z,22.80
2019-05-23T11:49:48.055Z,22.70
2019-05-23T11:52:18.807Z,22.70
2019-05-23T11:54:48.892Z,22.60
2019-05-23T11:57:18.894Z,22.80
2019-05-23T11:59:49.147Z,22.90
2019-05-23T12:02:31.290Z,22.90
2019-05-23T12:05:01.843Z,23.00
2019-05-23T12:07:32.280Z,22.80
2019-05-23T12:10:02.073Z,22.90
2019-05-23T12:12:32.675Z,23.10
2019-05-23T12:15:02.272Z,23.00
2019-05-23T12:17:32.716Z,23.10
2019-05-23T12:20:02.917Z,23.00
2019-05-23T12:22:33.518Z,23.00
2019-05-23T12:25:20.189Z,23.10
2019-05-23T12:27:35.885Z,23.00
2019-05-23T12:30:07.990Z,23.00
2019-05-23T12:32:37.678Z,22.90
2019-05-23T12:35:11.033Z,22.90
2019-05-23T12:37:38.963Z,22.90
2019-05-23T12:40:10.786Z,23.00
2019-05-23T12:42:40.515Z,23.20
2019-05-23T12:45:10.661Z,23.20
2019-05-23T12:47:51.858Z,23.20
2019-05-23T12:50:24.755Z,23.10
2019-05-23T12:52:54.440Z,23.10
2019-05-23T12:55:25.255Z,23.00
2019-05-23T12:57:54.860Z,23.00
2019-05-23T13:00:42.581Z,22.90
2019-05-23T13:03:14.234Z,22.80
2019-05-23T13:05:44.324Z,23.00
2019-05-23T13:08:14.371Z,23.00
2019-05-23T13:10:44.047Z,22.70
2019-05-23T13:13:14.439Z,22.30
2019-05-23T13:15:44.213Z,22.30
2019-05-23T13:18:13.996Z,22.20
2019-05-23T13:20:43.918Z,22.10
2019-05-23T13:23:20.744Z,21.80
2019-05-23T13:25:46.069Z,21.80
2019-05-23T13:28:15.828Z,21.80
2019-05-23T13:30:45.577Z,21.80
2019-05-23T13:33:15.566Z,21.90
2019-05-23T13:35:45.886Z,21.90
2019-05-23T13:38:15.939Z,21.90
2019-05-23T13:40:45.779Z,21.90
2019-05-23T13:43:15.522Z,21.80
2019-05-23T13:45:45.626Z,21.70
2019-05-23T13:48:15.392Z,21.80
2019-05-23T13:50:45.286Z,21.90
2019-05-23T13:53:15.035Z,21.90
2019-05-23T13:55:44.937Z,21.90
2019-05-23T13:58:15.319Z,22.00
2019-05-23T14:00:45.362Z,22.10
2019-05-23T14:03:15.352Z,22.10
2019-05-23T14:05:45.187Z,21.90
2019-05-23T14:08:19.025Z,21.90
2019-05-23T14:10:47.078Z,21.90
2019-05-23T14:13:16.868Z,21.90
2019-05-23T14:15:48.876Z,21.90
2019-05-23T14:18:20.055Z,22.00
2019-05-23T14:20:51.704Z,22.00
2019-05-23T14:23:29.510Z,21.90
2019-05-23T14:26:00.654Z,21.90
2019-05-23T14:28:30.731Z,21.80
2019-05-23T14:31:32.570Z,21.60
2019-05-23T14:34:08.859Z,21.50
2019-05-23T14:36:57.684Z,21.20
2019-05-23T14:39:37.210Z,21.00
2019-05-23T14:42:25.486Z,21.10
2019-05-23T14:44:55.285Z,21.10
2019-05-23T14:47:42.725Z,21.20
2019-05-23T14:50:34.337Z,21.30
2019-05-23T14:53:06.251Z,21.50
2019-05-23T14:55:36.172Z,21.50
2019-05-23T14:58:06.200Z,21.50
2019-05-23T15:00:36.943Z,21.30
2019-05-23T15:03:06.542Z,21.20
2019-05-23T15:05:36.134Z,21.20
2019-05-23T15:08:06.254Z,21.20
2019-05-23T15:10:36.134Z,21.20
2019-05-23T15:13:06.192Z,21.10
2019-05-23T15:15:35.865Z,21.20
2019-05-23T15:18:05.676Z,21.20
2019-05-23T15:20:35.568Z,21.20
2019-05-23T15:23:05.367Z,21.30
2019-05-23T15:25:35.062Z,21.40
2019-05-23T15:28:05.008Z,21.30
2019-05-23T15:30:35.452Z,21.40
2019-05-23T15:33:05.326Z,21.40
2019-05-23T15:35:35.610Z,21.30
2019-05-23T15:38:05.449Z,21.30
2019-05-23T15:40:35.841Z,21.30
2019-05-23T15:43:09.521Z,21.30
2019-05-23T15:45:36.894Z,21.30
2019-05-23T15:48:06.583Z,21.30
2019-05-23T15:50:41.841Z,21.40
2019-05-23T15:53:22.455Z,21.40
2019-05-23T15:55:57.252Z,21.40
2019-05-23T15:58:36.004Z,21.50
2019-05-23T16:01:09.161Z,21.60
2019-05-23T16:03:42.267Z,21.60
2019-05-23T16:06:14.627Z,21.60
2019-05-23T16:08:44.958Z,21.70
2019-05-23T16:11:17.632Z,21.70
2019-05-23T16:13:47.140Z,21.70
2019-05-23T16:16:16.964Z,21.70
2019-05-23T16:18:47.430Z,21.60
2019-05-23T16:21:17.550Z,21.50
2019-05-23T16:23:47.382Z,21.50
2019-05-23T16:26:17.465Z,21.40
2019-05-23T16:28:47.114Z,21.30
2019-05-23T16:31:16.719Z,21.30
2019-05-23T16:33:46.866Z,21.40
2019-05-23T16:36:17.131Z,21.40
2019-05-23T16:38:47.374Z,21.50
2019-05-23T16:41:17.027Z,21.40
2019-05-23T16:43:46.893Z,21.30
2019-05-23T16:46:16.694Z,21.40
2019-05-23T16:48:47.354Z,21.40
2019-05-23T16:51:17.949Z,21.50
2019-05-23T16:53:47.642Z,21.60
2019-05-23T16:56:25.424Z,21.60
2019-05-23T16:59:03.402Z,21.70
2019-05-23T17:02:06.548Z,21.60
2019-05-23T17:04:47.544Z,21.60
2019-05-23T17:07:36.318Z,21.50
2019-05-23T17:10:14.395Z,21.40
2019-05-23T17:12:59.166Z,21.40
2019-05-23T17:15:48.077Z,21.30
2019-05-23T17:18:24.442Z,21.20
2019-05-23T17:21:02.875Z,21.10
2019-05-23T17:23:41.864Z,21.10
2019-05-23T17:26:29.595Z,21.10
2019-05-23T17:29:00.641Z,21.20
2019-05-23T17:31:33.063Z,21.30
2019-05-23T17:34:02.930Z,21.30
2019-05-23T17:36:32.648Z,21.30
2019-05-23T17:39:02.732Z,21.30
2019-05-23T17:41:36.635Z,21.30
2019-05-23T17:44:10.117Z,21.20
2019-05-23T17:46:39.790Z,21.30
2019-05-23T17:49:15.859Z,21.30
2019-05-23T17:51:45.480Z,21.30
2019-05-23T17:54:15.106Z,21.30
2019-05-23T17:56:44.762Z,21.20
2019-05-23T17:59:14.598Z,21.20
2019-05-23T18:01:44.279Z,21.10
2019-05-23T18:04:14.373Z,21.10
2019-05-23T18:06:44.662Z,21.20
2019-05-23T18:09:15.529Z,21.20
2019-05-23T18:11:45.712Z,21.20
2019-05-23T18:14:15.814Z,21.20
2019-05-23T18:16:45.804Z,21.20
2019-05-23T18:19:18.190Z,21.20
2019-05-23T18:21:47.881Z,21.10
2019-05-23T18:24:17.654Z,21.10
2019-05-23T18:26:47.379Z,21.00
2019-05-23T18:29:17.350Z,21.00
2019-05-23T18:31:48.710Z,21.00
2019-05-23T18:34:19.844Z,21.00
2019-05-23T18:36:50.262Z,20.90
2019-05-23T18:39:21.750Z,20.80
2019-05-23T18:41:51.514Z,20.70
2019-05-23T18:44:21.763Z,20.60
2019-05-23T18:46:53.703Z,20.60
2019-05-23T18:49:25.638Z,20.50
2019-05-23T18:51:55.622Z,20.50
2019-05-23T18:54:25.748Z,20.40
2019-05-23T18:56:55.546Z,20.40
2019-05-23T18:59:25.870Z,20.30
2019-05-23T19:01:55.669Z,20.20
2019-05-23T19:04:25.275Z,20.10
2019-05-23T19:06:55.902Z,20.00
2019-05-23T19:09:26.262Z,19.90
2019-05-23T19:11:56.573Z,19.90
2019-05-23T19:14:26.514Z,19.80
2019-05-23T19:16:56.436Z,19.70
2019-05-23T19:19:26.075Z,19.60
2019-05-23T19:21:56.772Z,19.60
2019-05-23T19:24:26.706Z,19.50
2019-05-23T19:26:56.539Z,19.40
2019-05-23T19:29:26.700Z,19.30
2019-05-23T19:31:59.606Z,19.20
2019-05-23T19:34:29.682Z,19.10
2019-05-23T19:36:59.446Z,19.00
2019-05-23T19:39:31.240Z,18.90
2019-05-23T19:42:01.138Z,18.80
2019-05-23T19:44:30.826Z,18.70
2019-05-23T19:47:00.730Z,18.60
2019-05-23T19:49:30.630Z,18.60
2019-05-23T19:52:00.334Z,18.50
2019-05-23T19:54:30.022Z,18.40
2019-05-23T19:56:59.706Z,18.40
2019-05-23T19:59:29.567Z,18.30
2019-05-23T20:02:17.686Z,18.30
2019-05-23T20:04:56.191Z,18.10
2019-05-23T20:07:26.418Z,18.10
2019-05-23T20:09:57.464Z,18.00
2019-05-23T20:12:28.346Z,17.90
2019-05-23T20:14:58.106Z,17.90
2019-05-23T20:17:27.958Z,17.90
2019-05-23T20:19:57.604Z,17.90
2019-05-23T20:22:27.991Z,17.90
2019-05-23T20:24:57.687Z,17.90
2019-05-23T20:27:27.387Z,17.80
2019-05-23T20:29:57.184Z,17.70
2019-05-23T20:32:27.238Z,17.60
2019-05-23T20:34:56.849Z,17.50
2019-05-23T20:37:29.765Z,17.50
2019-05-23T20:39:59.617Z,17.40
2019-05-23T20:42:29.459Z,17.40
2019-05-23T20:44:59.518Z,17.30
2019-05-23T20:47:29.481Z,17.20
2019-05-23T20:49:59.250Z,17.10
2019-05-23T20:52:28.912Z,17.10
2019-05-23T20:54:58.642Z,17.10
2019-05-23T20:57:28.319Z,17.00
2019-05-23T20:59:58.160Z,16.90
2019-05-23T21:02:28.470Z,16.90
2019-05-23T21:04:58.078Z,17.00
2019-05-23T21:07:27.694Z,17.00
2019-05-23T21:09:57.379Z,17.00
2019-05-23T21:12:29.881Z,16.90
2019-05-23T21:14:58.501Z,16.80
2019-05-23T21:17:28.200Z,16.80
2019-05-23T21:19:57.807Z,16.70
2019-05-23T21:22:27.476Z,16.60
2019-05-23T21:24:57.145Z,16.50
2019-05-23T21:27:26.783Z,16.50
2019-05-23T21:29:56.384Z,16.50
2019-05-23T21:32:26.074Z,16.50
2019-05-23T21:34:55.774Z,16.50
2019-05-23T21:37:25.377Z,16.40
2019-05-23T21:39:54.995Z,16.30
2019-05-23T21:42:24.680Z,16.20
2019-05-23T21:44:54.309Z,16.10
2019-05-23T21:47:24.008Z,16.10
2019-05-23T21:49:53.710Z,16.10
2019-05-23T21:52:23.424Z,16.20
2019-05-23T21:54:53.033Z,16.20
2019-05-23T21:57:22.622Z,16.20
2019-05-23T21:59:52.255Z,16.10
2019-05-23T22:02:27.726Z,16.00
2019-05-23T22:05:04.347Z,15.90
2019-05-23T22:07:34.379Z,15.80
2019-05-23T22:10:04.486Z,15.70
2019-05-23T22:12:34.481Z,15.50
2019-05-23T22:15:05.752Z,15.40
2019-05-23T22:17:35.642Z,15.30
2019-05-23T22:20:05.830Z,15.20
2019-05-23T22:22:35.550Z,15.20
2019-05-23T22:25:05.811Z,15.20
2019-05-23T22:27:35.515Z,15.20
2019-05-23T22:30:07.088Z,15.20
2019-05-23T22:32:36.791Z,15.20
2019-05-23T22:35:14.195Z,15.00
2019-05-23T22:37:44.279Z,15.00
2019-05-23T22:40:14.791Z,14.90
2019-05-23T22:42:44.662Z,14.80
2019-05-23T22:45:16.659Z,14.80
2019-05-23T22:47:46.282Z,14.80
2019-05-23T22:50:16.252Z,14.80
2019-05-23T22:52:45.932Z,14.70
2019-05-23T22:55:15.656Z,14.70
2019-05-23T22:57:45.295Z,14.70
2019-05-23T23:00:18.587Z,14.70
2019-05-23T23:02:48.186Z,14.80
2019-05-23T23:05:17.887Z,14.80
2019-05-23T23:07:47.658Z,14.80
2019-05-23T23:10:17.359Z,14.70
2019-05-23T23:12:47.410Z,14.60
2019-05-23T23:15:17.394Z,14.60
2019-05-23T23:17:47.170Z,14.60
2019-05-23T23:20:16.933Z,14.60
2019-05-23T23:22:46.563Z,14.60
2019-05-23T23:25:16.341Z,14.60
2019-05-23T23:27:46.052Z,14.60
2019-05-23T23:30:36.895Z,14.50
2019-05-23T23:33:06.806Z,14.40
2019-05-23T23:35:36.570Z,14.30
2019-05-23T23:38:06.916Z,14.30
2019-05-23T23:40:36.543Z,14.40
2019-05-23T23:43:06.304Z,14.40
2019-05-23T23:45:54.038Z,14.40
2019-05-23T23:48:42.403Z,14.40
2019-05-23T23:51:29.961Z,14.50
2019-05-23T23:54:17.303Z,14.60
2019-05-23T23:57:05.938Z,14.60
2019-05-23T23:59:34.830Z,14.50
